VPY weather

Chimoio Airport
Chimoio, Manica Province, Mozambique

Public forecast

Using degrees Celsius for public forecast. Weather courtesy of forecast.io.

METAR (pilot weather report)

Retrieved 2019/05/22 10:00 UTC (7 minutes ago):

FQCH 221000Z /////KT 9999 FEW020 24/11 Q1024

TAF (pilot weather forecast)

Retrieved 2019/05/22 06:00 UTC (4 hours ago):

TAF FQCH 220400Z 2206/2306 19008KT 9999 FEW025 TX25/2213Z TN15/2303Z